createdAt,value
2023-03-27T00:03:26.329Z,4.99
2023-03-27T00:08:41.723Z,4.93
2023-03-27T00:13:54.997Z,4.91
2023-03-27T00:19:20.270Z,4.95
2023-03-27T00:25:04.444Z,4.96
2023-03-27T00:30:11.005Z,5.01
2023-03-27T00:35:14.814Z,5.04
2023-03-27T00:40:53.614Z,5.09
2023-03-27T00:46:21.948Z,5.12
2023-03-27T00:51:58.240Z,5.14
2023-03-27T00:57:22.051Z,5.08
2023-03-27T01:02:45.690Z,5.00
2023-03-27T01:08:02.690Z,5.00
2023-03-27T01:13:20.892Z,4.92
2023-03-27T01:18:41.107Z,4.74
2023-03-27T01:24:53.702Z,4.62
2023-03-27T01:30:24.590Z,4.55
2023-03-27T01:36:20.069Z,4.53
2023-03-27T01:41:55.631Z,4.43
2023-03-27T01:47:32.707Z,4.39
2023-03-27T01:52:42.244Z,4.39
2023-03-27T01:58:34.145Z,4.35
2023-03-27T02:04:20.801Z,4.17
2023-03-27T02:09:58.400Z,4.09
2023-03-27T02:15:43.695Z,3.98
2023-03-27T02:20:59.568Z,3.89
2023-03-27T02:26:03.957Z,3.93
2023-03-27T02:32:13.586Z,3.99
2023-03-27T02:38:23.630Z,3.97
2023-03-27T02:44:00.046Z,3.81
2023-03-27T02:49:36.569Z,3.70
2023-03-27T02:55:33.011Z,3.65
2023-03-27T03:00:51.932Z,3.62
2023-03-27T03:06:34.968Z,3.66
2023-03-27T03:11:57.528Z,3.61
2023-03-27T03:17:03.832Z,3.60
2023-03-27T03:22:15.634Z,3.47
2023-03-27T03:28:19.748Z,3.30
2023-03-27T03:33:57.297Z,3.27
2023-03-27T03:39:01.028Z,3.34
2023-03-27T03:44:24.778Z,3.38
2023-03-27T03:49:29.972Z,3.34
2023-03-27T03:54:54.003Z,3.39
2023-03-27T04:00:08.701Z,3.48
2023-03-27T04:05:22.791Z,3.61
2023-03-27T04:10:33.626Z,3.67
2023-03-27T04:15:52.923Z,3.78
2023-03-27T04:21:26.595Z,3.90
2023-03-27T04:27:08.427Z,4.08
2023-03-27T04:32:31.772Z,4.08
2023-03-27T04:38:17.525Z,4.12
2023-03-27T04:43:30.929Z,4.21
2023-03-27T04:49:39.516Z,4.28
2023-03-27T04:55:26.924Z,4.33
2023-03-27T05:00:44.038Z,4.29
2023-03-27T05:06:23.064Z,4.32
2023-03-27T05:12:26.642Z,4.41
2023-03-27T05:18:03.007Z,4.57
2023-03-27T05:24:01.086Z,4.74
2023-03-27T05:29:47.436Z,4.92
2023-03-27T05:35:20.498Z,5.08
2023-03-27T05:40:41.906Z,5.09
2023-03-27T05:46:42.814Z,5.15
2023-03-27T05:52:33.821Z,5.25
2023-03-27T05:58:11.589Z,5.30
2023-03-27T06:03:35.819Z,5.33
2023-03-27T06:08:52.995Z,5.31
2023-03-27T06:15:07.144Z,5.30
2023-03-27T06:20:52.018Z,5.28
2023-03-27T06:25:59.506Z,5.28
2023-03-27T06:31:39.334Z,5.32
2023-03-27T06:37:09.021Z,5.41
2023-03-27T06:43:17.528Z,5.52
2023-03-27T06:48:36.298Z,5.65
2023-03-27T06:53:55.297Z,5.75
2023-03-27T06:59:09.166Z,5.89
2023-03-27T07:04:16.853Z,6.28
2023-03-27T07:09:41.076Z,6.84
2023-03-27T07:15:36.500Z,6.97
2023-03-27T07:20:40.488Z,7.09
2023-03-27T07:25:53.425Z,7.31
2023-03-27T07:36:31.972Z,7.41
2023-03-27T07:42:02.528Z,7.47
2023-03-27T07:47:35.168Z,7.53
2023-03-27T07:53:34.093Z,7.45
2023-03-27T07:58:57.821Z,7.44
2023-03-27T08:04:07.591Z,7.43
2023-03-27T08:09:42.123Z,7.41
2023-03-27T08:15:09.950Z,7.40
2023-03-27T08:20:33.995Z,7.40
2023-03-27T08:25:50.385Z,7.39
2023-03-27T08:31:16.456Z,7.43
2023-03-27T08:36:53.931Z,7.48
2023-03-27T08:42:34.337Z,7.42
2023-03-27T08:47:52.344Z,7.33
2023-03-27T08:54:06.338Z,7.17
2023-03-27T08:59:33.167Z,7.09
2023-03-27T09:05:35.192Z,7.13
2023-03-27T09:10:50.971Z,7.14
2023-03-27T09:17:20.013Z,7.06
2023-03-27T09:23:34.673Z,7.05
2023-03-27T09:29:39.720Z,7.03
2023-03-27T09:35:22.460Z,6.97
2023-03-27T09:41:10.359Z,6.91
2023-03-27T09:46:20.309Z,6.91
2023-03-27T09:51:46.198Z,6.96
2023-03-27T09:57:16.579Z,6.94
2023-03-27T10:02:30.844Z,6.95
2023-03-27T10:07:40.774Z,6.90
2023-03-27T10:13:26.888Z,6.67
2023-03-27T10:18:50.656Z,6.57
2023-03-27T10:24:44.280Z,6.48
2023-03-27T10:30:45.435Z,6.34
2023-03-27T10:37:00.787Z,6.24
2023-03-27T10:42:48.627Z,6.29
2023-03-27T10:48:39.013Z,6.47
2023-03-27T10:54:02.206Z,6.54
2023-03-27T10:59:49.225Z,6.52
2023-03-27T11:05:43.440Z,6.56
2023-03-27T11:11:28.396Z,6.57
2023-03-27T11:16:59.673Z,6.67
2023-03-27T11:23:02.077Z,6.93
2023-03-27T11:28:34.122Z,6.86
2023-03-27T11:34:28.370Z,6.85
2023-03-27T11:40:00.465Z,6.95
2023-03-27T11:46:24.828Z,6.84
2023-03-27T11:51:34.853Z,6.73
2023-03-27T11:57:21.070Z,6.79
2023-03-27T12:03:31.909Z,7.05
2023-03-27T12:09:44.310Z,7.09
2023-03-27T12:15:58.348Z,7.02
2023-03-27T12:21:29.437Z,7.04
2023-03-27T12:28:04.925Z,7.17
2023-03-27T12:34:20.031Z,7.30
2023-03-27T12:39:56.823Z,7.36
2023-03-27T12:45:28.885Z,7.36
2023-03-27T12:51:03.205Z,7.29
2023-03-27T12:57:10.118Z,7.16
2023-03-27T13:03:37.072Z,7.05
2023-03-27T13:09:34.375Z,6.98
2023-03-27T13:15:47.597Z,6.99
2023-03-27T13:22:16.835Z,7.01
2023-03-27T13:28:16.264Z,7.07
2023-03-27T13:34:32.111Z,7.00
2023-03-27T13:40:41.417Z,6.94
2023-03-27T13:46:41.015Z,6.90
2023-03-27T13:52:51.081Z,6.86
2023-03-27T13:58:49.637Z,6.88
2023-03-27T14:04:47.540Z,6.79
2023-03-27T14:10:36.694Z,6.64
2023-03-27T14:16:42.426Z,6.56
2023-03-27T14:21:56.477Z,6.48
2023-03-27T14:27:41.436Z,6.46
2023-03-27T14:33:05.190Z,6.32
2023-03-27T14:38:25.010Z,6.24
2023-03-27T14:44:13.627Z,6.15
2023-03-27T14:49:36.059Z,5.98
2023-03-27T14:54:55.037Z,5.95
2023-03-27T15:00:22.427Z,5.89
2023-03-27T15:06:27.165Z,5.74
2023-03-27T15:12:25.784Z,5.46
2023-03-27T15:17:43.196Z,5.37
2023-03-27T15:23:26.365Z,5.31
2023-03-27T15:28:41.629Z,5.28
2023-03-27T15:34:51.838Z,5.22
2023-03-27T15:40:58.564Z,5.15
2023-03-27T15:46:42.730Z,4.99
2023-03-27T15:52:47.553Z,4.88
2023-03-27T15:58:35.979Z,4.81
2023-03-27T16:03:58.989Z,4.75
2023-03-27T16:10:12.492Z,4.69
2023-03-27T16:16:21.941Z,4.69
2023-03-27T16:22:26.367Z,4.66
2023-03-27T16:28:33.424Z,4.67
2023-03-27T16:33:45.292Z,4.65
2023-03-27T16:39:11.803Z,4.63
2023-03-27T16:44:41.284Z,4.63
2023-03-27T16:50:37.600Z,4.65
2023-03-27T16:56:18.742Z,4.62
2023-03-27T17:02:37.317Z,4.55
2023-03-27T17:08:52.554Z,4.51
2023-03-27T17:33:34.191Z,4.19
2023-03-27T17:39:41.287Z,4.15
2023-03-27T17:45:30.124Z,4.13
2023-03-27T17:51:53.198Z,4.06
2023-03-27T17:58:16.555Z,4.02
2023-03-27T18:04:58.275Z,3.95
2023-03-27T18:10:34.763Z,3.88
2023-03-27T18:16:21.809Z,3.83
2023-03-27T18:22:09.934Z,3.79
2023-03-27T18:28:01.505Z,3.75
2023-03-27T18:34:18.399Z,3.67
2023-03-27T18:39:47.448Z,3.56
2023-03-27T18:46:03.110Z,3.49
2023-03-27T18:57:38.933Z,3.25
2023-03-27T19:03:18.339Z,3.15
2023-03-27T19:08:33.562Z,3.04
2023-03-27T19:20:31.348Z,2.85
2023-03-27T19:25:55.594Z,2.78
2023-03-27T19:31:59.720Z,2.70
2023-03-27T19:38:10.513Z,2.60
2023-03-27T19:43:25.809Z,2.49
2023-03-27T19:49:02.453Z,2.41
2023-03-27T19:54:40.743Z,2.32
2023-03-27T20:00:58.907Z,2.17
2023-03-27T20:06:48.226Z,2.10
2023-03-27T20:12:57.824Z,2.02
2023-03-27T20:18:42.655Z,1.94
2023-03-27T20:24:39.748Z,1.87
2023-03-27T20:30:15.030Z,1.80
2023-03-27T20:35:37.881Z,1.76
2023-03-27T20:41:13.781Z,1.68
2023-03-27T20:46:37.603Z,1.57
2023-03-27T20:52:15.482Z,1.50
2023-03-27T20:58:11.254Z,1.45
2023-03-27T21:04:35.421Z,1.38
2023-03-27T21:10:15.592Z,1.32
2023-03-27T21:15:55.716Z,1.27
2023-03-27T21:21:39.985Z,1.20
2023-03-27T21:27:26.861Z,1.14
2023-03-27T21:32:53.767Z,1.09
2023-03-27T21:38:53.786Z,1.05
2023-03-27T21:44:11.511Z,1.01
2023-03-27T21:49:46.523Z,0.98
2023-03-27T21:55:40.505Z,0.94
2023-03-27T22:01:45.106Z,0.87
2023-03-27T22:07:14.153Z,0.82
2023-03-27T22:12:46.587Z,0.82
2023-03-27T22:18:50.710Z,0.78
2023-03-27T22:24:54.877Z,0.74
2023-03-27T22:30:18.824Z,0.74
2023-03-27T22:35:38.043Z,0.70
2023-03-27T22:41:01.760Z,0.73
2023-03-27T22:46:34.559Z,0.68
2023-03-27T22:51:41.123Z,0.58
2023-03-27T22:57:45.124Z,0.51
2023-03-27T23:03:45.043Z,0.45
2023-03-27T23:09:41.996Z,0.36
2023-03-27T23:15:30.231Z,0.27
2023-03-27T23:20:34.118Z,0.14
2023-03-27T23:25:42.561Z,0.08
2023-03-27T23:30:58.890Z,0.06
2023-03-27T23:36:10.514Z,0.04
2023-03-27T23:41:15.460Z,0.03
2023-03-27T23:46:19.063Z,0.04
2023-03-27T23:51:22.463Z,0.05
2023-03-27T23:56:25.905Z,0.04
